Time;durP1;ratioP1;P1;durP2;ratioP2;P2;SDS_P1;SDS_P2;PMS_P1;PMS_P2;Temp;Humidity;BMP_temperature;BMP_pressure;BME280_temperature;BME280_humidity;BME280_pressure;Samples;Min_cycle;Max_cycle;Signal;HPM_P1;HPM_P2
2022/12/20 15:03:16;;;;;;;7.57;5.20;;;10.10;95.20;;;;;;5152196;27;20106;-60
2022/12/20 15:05:46;;;;;;;10.73;5.50;;;10.20;95.30;;;;;;5133036;27;20098;-59
2022/12/20 15:08:36;;;;;;;6.53;4.60;;;10.20;95.20;;;;;;5133238;27;20030;-58
2022/12/20 15:11:14;;;;;;;8.38;5.63;;;10.20;95.20;;;;;;5123270;27;20496;-58
2022/12/20 15:13:42;;;;;;;8.45;5.50;;;10.30;95.20;;;;;;5151786;27;20023;-59
2022/12/20 15:16:34;;;;;;;15.57;6.68;;;10.20;95.10;;;;;;5144099;27;20035;-57
2022/12/20 15:19:01;;;;;;;12.68;6.10;;;10.30;95.00;;;;;;5148508;27;20035;-56
2022/12/20 15:21:41;;;;;;;8.55;4.72;;;10.30;94.90;;;;;;5151670;27;20026;-57
2022/12/20 15:24:17;;;;;;;16.20;5.70;;;10.30;94.80;;;;;;5151838;27;20019;-57
2022/12/20 15:26:43;;;;;;;9.82;6.05;;;10.20;94.70;;;;;;5150473;27;20023;-56
2022/12/20 15:29:29;;;;;;;12.52;7.50;;;10.20;94.70;;;;;;5150230;27;20023;-55
2022/12/20 15:32:21;;;;;;;12.55;5.43;;;10.20;94.70;;;;;;5151589;27;20039;-55
2022/12/20 15:34:47;;;;;;;8.75;4.95;;;10.30;94.60;;;;;;5151850;27;20481;-57
2022/12/20 15:37:14;;;;;;;10.00;6.10;;;10.30;94.50;;;;;;5151122;27;20058;-58
2022/12/20 15:39:40;;;;;;;11.70;4.97;;;10.30;94.50;;;;;;5151801;27;20454;-56
2022/12/20 15:42:06;;;;;;;11.77;5.65;;;10.30;94.40;;;;;;5151495;27;20019;-56
2022/12/20 15:44:34;;;;;;;10.55;5.22;;;10.30;94.40;;;;;;5151094;27;20351;-58
2022/12/20 15:47:00;;;;;;;8.10;5.00;;;10.30;94.20;;;;;;5149743;27;20046;-58
2022/12/20 15:49:31;;;;;;;13.40;6.13;;;10.30;94.10;;;;;;5151527;27;20054;-59
2022/12/20 15:51:57;;;;;;;10.75;4.45;;;10.30;94.00;;;;;;5149818;27;20525;-59
2022/12/20 15:54:32;;;;;;;14.48;6.30;;;10.30;94.00;;;;;;5151451;27;20030;-60
2022/12/20 15:57:01;;;;;;;9.93;4.63;;;10.30;93.90;;;;;;5150961;27;20455;-59
2022/12/20 15:59:28;;;;;;;8.70;4.63;;;10.30;93.90;;;;;;5151185;27;20035;-60
2022/12/20 16:01:54;;;;;;;8.68;5.22;;;10.30;93.90;;;;;;5149195;27;20039;-60
2022/12/20 16:04:20;;;;;;;14.90;6.43;;;10.30;93.80;;;;;;5150831;27;20144;-59
2022/12/20 16:06:48;;;;;;;7.20;4.60;;;10.30;93.80;;;;;;5151140;27;20019;-57
2022/12/20 16:09:15;;;;;;;7.78;4.43;;;10.40;93.80;;;;;;5150845;27;20482;-61
2022/12/20 16:11:41;;;;;;;11.30;5.32;;;10.40;93.70;;;;;;5151055;27;20026;-59
2022/12/20 16:14:17;;;;;;;11.32;4.88;;;10.40;93.70;;;;;;5139081;27;20034;-60
2022/12/20 16:16:43;;;;;;;7.20;4.70;;;10.40;93.70;;;;;;5136561;27;20035;-59
2022/12/20 16:19:09;;;;;;;9.70;5.20;;;10.40;93.60;;;;;;5135426;27;20023;-61
2022/12/20 16:21:42;;;;;;;10.30;5.80;;;10.30;93.60;;;;;;5136678;27;20027;-62
2022/12/20 16:24:12;;;;;;;11.73;5.95;;;10.30;93.70;;;;;;5136889;27;20023;-59
2022/12/20 16:26:37;;;;;;;11.88;6.03;;;10.30;93.70;;;;;;5136653;27;20079;-61
2022/12/20 16:29:03;;;;;;;12.57;6.20;;;10.30;93.70;;;;;;5136867;27;20463;-59
2022/12/20 16:31:32;;;;;;;9.05;5.63;;;10.30;93.70;;;;;;5136696;27;20083;-60
2022/12/20 16:34:01;;;;;;;10.02;6.43;;;10.30;93.80;;;;;;5137048;27;20563;-60
2022/12/20 16:36:28;;;;;;;12.05;5.10;;;10.30;93.90;;;;;;5135426;27;20027;-61
2022/12/20 16:38:53;;;;;;;11.57;6.85;;;10.30;93.70;;;;;;5136800;27;20028;-59
2022/12/20 16:41:22;;;;;;;11.05;6.28;;;10.30;93.70;;;;;;5136468;27;20046;-60
2022/12/20 16:43:49;;;;;;;16.05;5.00;;;10.30;93.50;;;;;;5136196;27;20023;-61
2022/12/20 16:46:17;;;;;;;15.63;6.15;;;10.30;93.50;;;;;;5136524;27;20463;-60
2022/12/20 16:48:44;;;;;;;10.75;5.85;;;10.30;93.40;;;;;;5136741;27;20019;-59
2022/12/20 16:51:33;;;;;;;11.05;5.15;;;10.40;93.50;;;;;;5135098;27;20023;-60
2022/12/20 16:54:04;;;;;;;12.45;6.25;;;10.30;93.40;;;;;;5136605;27;20416;-60
2022/12/20 16:56:30;;;;;;;8.70;4.97;;;10.40;93.30;;;;;;5135056;27;20478;-60
2022/12/20 16:58:57;;;;;;;9.90;4.95;;;10.30;93.30;;;;;;5136667;27;20033;-58
2022/12/20 17:01:28;;;;;;;14.60;5.25;;;10.30;93.30;;;;;;5135465;27;20063;-61
2022/12/20 17:03:54;;;;;;;13.13;4.10;;;10.40;93.20;;;;;;5136549;27;20095;-60
2022/12/20 17:06:19;;;;;;;13.52;8.18;;;10.40;93.10;;;;;;5136239;27;20058;-60
2022/12/20 17:08:46;;;;;;;8.27;5.32;;;10.30;93.20;;;;;;5136255;27;20419;-61
2022/12/20 17:11:17;;;;;;;9.00;5.05;;;10.40;93.20;;;;;;5136321;27;20080;-61
2022/12/20 17:13:44;;;;;;;12.80;4.15;;;10.40;93.20;;;;;;5136048;27;20488;-59
2022/12/20 17:16:11;;;;;;;12.82;5.55;;;10.40;93.10;;;;;;5135680;27;20027;-56
2022/12/20 17:18:38;;;;;;;11.85;4.93;;;10.40;93.20;;;;;;5136672;27;20038;-60
2022/12/20 17:21:18;;;;;;;6.55;4.68;;;10.40;93.20;;;;;;5134469;27;20123;-59
2022/12/20 17:23:44;;;;;;;11.48;5.53;;;10.40;93.20;;;;;;5134524;27;20418;-61
2022/12/20 17:26:22;;;;;;;11.50;5.13;;;10.50;93.20;;;;;;5134922;27;20134;-58
2022/12/20 17:28:49;;;;;;;10.20;5.45;;;10.50;93.00;;;;;;5135484;27;20034;-60
2022/12/20 17:31:33;;;;;;;6.13;4.55;;;10.50;93.00;;;;;;5135798;27;20019;-59
2022/12/20 17:34:02;;;;;;;7.85;4.32;;;10.50;93.00;;;;;;5135456;27;20032;-59
2022/12/20 17:36:28;;;;;;;9.10;3.70;;;10.50;93.00;;;;;;5134290;27;20027;-59
2022/12/20 17:38:53;;;;;;;10.95;3.72;;;10.50;93.20;;;;;;5135560;27;20363;-59
2022/12/20 17:41:19;;;;;;;6.68;4.43;;;10.60;93.00;;;;;;5135368;27;20019;-60
2022/12/20 17:43:45;;;;;;;5.20;3.30;;;10.50;92.90;;;;;;5135533;27;20026;-60
2022/12/20 17:46:10;;;;;;;9.98;4.45;;;10.50;93.10;;;;;;5135160;27;20026;-61
2022/12/20 17:48:36;;;;;;;8.07;4.45;;;10.50;92.90;;;;;;5133803;27;20145;-61
2022/12/20 17:51:02;;;;;;;4.68;3.25;;;10.50;93.10;;;;;;5135213;27;20490;-60
2022/12/20 17:53:28;;;;;;;9.18;4.25;;;10.50;93.00;;;;;;5135264;27;20031;-61
2022/12/20 17:55:54;;;;;;;7.82;4.38;;;10.50;93.00;;;;;;5135195;27;20019;-61
2022/12/20 17:58:19;;;;;;;6.00;4.25;;;10.50;93.00;;;;;;5135168;27;20027;-60
2022/12/20 18:00:45;;;;;;;7.40;3.35;;;10.60;93.00;;;;;;5134676;27;20027;-60
2022/12/20 18:03:11;;;;;;;14.52;4.30;;;10.50;92.80;;;;;;5135173;27;20420;-61
2022/12/20 18:05:39;;;;;;;7.53;3.95;;;10.50;92.80;;;;;;5135093;27;20043;-62
2022/12/20 18:08:05;;;;;;;7.90;5.03;;;10.40;92.90;;;;;;5135212;27;20122;-60
2022/12/20 18:10:30;;;;;;;6.78;4.55;;;10.50;93.10;;;;;;5133776;27;20023;-61
2022/12/20 18:12:56;;;;;;;6.45;4.20;;;10.50;92.90;;;;;;5135325;27;20031;-62
2022/12/20 18:15:22;;;;;;;10.18;4.65;;;10.50;93.10;;;;;;5134909;27;20080;-61
2022/12/20 18:17:47;;;;;;;15.48;4.68;;;10.50;93.20;;;;;;5133563;27;20062;-60
2022/12/20 18:20:13;;;;;;;8.10;4.57;;;10.50;92.90;;;;;;5133433;27;20034;-61
2022/12/20 18:22:39;;;;;;;12.88;5.40;;;10.40;93.10;;;;;;5133331;27;20046;-59
2022/12/20 18:25:07;;;;;;;14.48;6.65;;;10.50;93.30;;;;;;5134516;27;20023;-61
2022/12/20 18:27:40;;;;;;;5.85;4.75;;;10.40;93.30;;;;;;5134751;27;20047;-61
2022/12/20 18:30:06;;;;;;;8.63;4.90;;;10.50;93.30;;;;;;5134468;27;20015;-61
2022/12/20 18:32:32;;;;;;;7.22;4.60;;;10.60;93.30;;;;;;5134125;27;20031;-62
2022/12/20 18:34:58;;;;;;;8.60;4.50;;;10.50;93.00;;;;;;5134395;27;20023;-61
2022/12/20 18:37:24;;;;;;;10.27;5.80;;;10.50;92.90;;;;;;5134259;27;20450;-60
2022/12/20 18:39:50;;;;;;;9.85;4.75;;;10.40;93.00;;;;;;5134913;27;20023;-62
2022/12/20 18:42:15;;;;;;;8.13;4.50;;;10.50;93.10;;;;;;5133038;27;20462;-60
2022/12/20 18:44:41;;;;;;;8.20;4.88;;;10.40;93.10;;;;;;5134777;27;20098;-58
2022/12/20 18:47:07;;;;;;;13.52;5.30;;;10.40;93.40;;;;;;5134411;27;20486;-59
2022/12/20 18:49:33;;;;;;;8.35;4.70;;;10.40;93.40;;;;;;5134420;27;20027;-60
2022/12/20 18:51:58;;;;;;;6.22;4.45;;;10.30;93.40;;;;;;5134747;27;20023;-59
2022/12/20 18:54:24;;;;;;;7.90;4.85;;;10.40;93.60;;;;;;5134434;27;20030;-60
2022/12/20 18:56:50;;;;;;;11.35;6.70;;;10.30;93.60;;;;;;5132619;27;20032;-60
2022/12/20 18:59:16;;;;;;;9.70;6.72;;;10.40;93.80;;;;;;5133176;27;20076;-61
2022/12/20 19:01:45;;;;;;;7.63;5.70;;;10.30;93.80;;;;;;5133907;28;20095;-60
2022/12/20 19:04:10;;;;;;;12.68;6.72;;;10.30;93.90;;;;;;5133064;28;20021;-59
2022/12/20 19:06:37;;;;;;;11.75;6.30;;;10.30;94.00;;;;;;5132998;28;20015;-63
2022/12/20 19:09:09;;;;;;;12.70;6.70;;;10.30;94.10;;;;;;5134552;28;20019;-58
2022/12/20 19:11:35;;;;;;;9.93;6.80;;;10.30;94.10;;;;;;5134262;28;20589;-60
2022/12/20 19:14:02;;;;;;;10.43;6.57;;;10.30;94.20;;;;;;5133787;28;20031;-60
2022/12/20 19:16:30;;;;;;;11.93;5.85;;;10.30;94.20;;;;;;5133781;28;20027;-59
2022/12/20 19:19:00;;;;;;;11.23;5.97;;;10.30;94.20;;;;;;5134309;28;20057;-62
2022/12/20 19:21:28;;;;;;;10.43;5.40;;;10.30;94.30;;;;;;5134171;27;20034;-60
2022/12/20 19:23:56;;;;;;;12.43;6.20;;;10.30;94.30;;;;;;5134282;28;20019;-61
2022/12/20 19:26:26;;;;;;;16.98;7.35;;;10.30;94.40;;;;;;5132896;28;20494;-62
2022/12/20 19:28:52;;;;;;;12.52;5.97;;;10.30;94.40;;;;;;5133899;28;20047;-61
2022/12/20 19:31:23;;;;;;;16.98;7.15;;;10.30;94.40;;;;;;5134263;28;20545;-59
2022/12/20 19:33:50;;;;;;;16.05;6.97;;;10.30;94.50;;;;;;5132937;28;20431;-59
2022/12/20 19:36:19;;;;;;;11.27;7.00;;;10.30;94.50;;;;;;5133902;28;20024;-58
2022/12/20 19:38:49;;;;;;;13.65;6.47;;;10.40;94.50;;;;;;5134110;28;20019;-60
2022/12/20 19:41:14;;;;;;;13.25;5.80;;;10.30;94.40;;;;;;5132478;28;20031;-59
2022/12/20 19:43:40;;;;;;;10.40;5.97;;;10.30;94.40;;;;;;5132664;28;20111;-56
2022/12/20 19:46:06;;;;;;;15.93;7.20;;;10.30;94.50;;;;;;5132374;28;20419;-59
2022/12/20 19:48:33;;;;;;;17.15;6.63;;;10.30;94.50;;;;;;5135405;27;20493;-59
2022/12/20 19:51:03;;;;;;;11.90;7.45;;;10.30;94.60;;;;;;5137537;27;20039;-58
2022/12/20 19:53:29;;;;;;;9.93;6.88;;;10.30;94.50;;;;;;5136344;27;20015;-61
2022/12/20 19:55:55;;;;;;;12.65;7.13;;;10.30;94.60;;;;;;5136182;27;20139;-59
2022/12/20 19:58:21;;;;;;;14.45;7.10;;;10.30;94.60;;;;;;5137843;27;20030;-58
2022/12/20 20:00:47;;;;;;;13.30;7.85;;;10.30;94.60;;;;;;5137102;27;20015;-57
2022/12/20 20:03:14;;;;;;;9.85;7.20;;;10.30;94.70;;;;;;5137707;27;20031;-58
2022/12/20 20:05:40;;;;;;;10.05;6.60;;;10.20;94.70;;;;;;5137310;27;20023;-58
2022/12/20 20:08:06;;;;;;;10.02;6.40;;;10.20;94.60;;;;;;5137258;27;20102;-60
2022/12/20 20:10:32;;;;;;;15.95;7.40;;;10.20;94.70;;;;;;5137271;27;20046;-61
2022/12/20 20:12:57;;;;;;;15.35;6.68;;;10.20;94.80;;;;;;5137080;27;20030;-59
2022/12/20 20:15:23;;;;;;;16.42;8.68;;;10.30;94.80;;;;;;5137250;27;20046;-60
2022/12/20 20:17:49;;;;;;;13.85;8.68;;;10.30;94.80;;;;;;5137064;27;20031;-58
2022/12/20 20:20:15;;;;;;;11.93;7.72;;;10.20;94.80;;;;;;5137037;27;20019;-60
2022/12/20 20:22:40;;;;;;;14.35;7.88;;;10.20;94.90;;;;;;5135608;27;20497;-57
2022/12/20 20:25:06;;;;;;;15.70;9.27;;;10.20;94.90;;;;;;5137193;27;20019;-60
2022/12/20 20:27:32;;;;;;;16.30;9.45;;;10.30;95.00;;;;;;5137528;27;20441;-59
2022/12/20 20:29:58;;;;;;;17.27;8.23;;;10.20;95.00;;;;;;5137172;27;20023;-60
2022/12/20 20:32:23;;;;;;;16.98;9.75;;;10.30;95.00;;;;;;5136964;27;20019;-60
2022/12/20 20:34:49;;;;;;;23.02;10.93;;;10.30;95.00;;;;;;5135711;27;20121;-61
2022/12/20 20:37:17;;;;;;;19.42;9.98;;;10.20;94.90;;;;;;5135580;27;20079;-60
2022/12/20 20:39:43;;;;;;;17.15;10.98;;;10.20;95.00;;;;;;5136991;27;20445;-61
2022/12/20 20:42:12;;;;;;;18.30;10.95;;;10.20;95.10;;;;;;5136815;27;20102;-61
2022/12/20 20:44:38;;;;;;;16.02;10.25;;;10.30;95.10;;;;;;5137153;27;20033;-60
2022/12/20 20:47:04;;;;;;;20.65;11.45;;;10.20;95.00;;;;;;5135372;27;20019;-59
2022/12/20 20:49:30;;;;;;;25.38;13.45;;;10.30;95.00;;;;;;5136460;27;20031;-60
2022/12/20 20:51:55;;;;;;;19.58;12.63;;;10.40;95.00;;;;;;5136423;27;20027;-61
2022/12/20 20:54:21;;;;;;;19.33;12.15;;;10.30;94.90;;;;;;5136327;27;20102;-61
2022/12/20 20:56:47;;;;;;;26.48;13.20;;;10.30;95.00;;;;;;5136462;27;20027;-60
2022/12/20 20:59:12;;;;;;;28.52;13.80;;;10.30;95.00;;;;;;5136841;27;20023;-60
